Time;durP1;ratioP1;P1;durP2;ratioP2;P2;SDS_P1;SDS_P2;PMS_P1;PMS_P2;Temp;Humidity;BMP_temperature;BMP_pressure;BME280_temperature;BME280_humidity;BME280_pressure;Samples;Min_cycle;Max_cycle;Signal;HPM_P1;HPM_P2
2024/03/20 00:00:59;;;;;;;13.30;12.00;;;7.10;1.00;;;;;;5123125;27;20513;-75
2024/03/20 00:03:27;;;;;;;16.63;13.10;;;7.10;1.00;;;;;;5110723;27;20543;-75
2024/03/20 00:05:54;;;;;;;13.32;11.93;;;7.10;1.00;;;;;;5120492;27;20315;-75
2024/03/20 00:08:21;;;;;;;13.30;11.97;;;7.10;1.00;;;;;;5123711;27;20326;-75
2024/03/20 00:10:48;;;;;;;13.02;11.60;;;7.20;1.00;;;;;;5125341;27;20449;-76
2024/03/20 00:13:15;;;;;;;13.50;12.10;;;7.20;1.00;;;;;;5123224;27;20324;-75
2024/03/20 00:15:42;;;;;;;14.00;12.60;;;7.20;1.00;;;;;;5106872;27;20546;-75
2024/03/20 00:18:14;;;;;;;16.13;12.03;;;7.20;1.00;;;;;;5125043;27;20480;-76
2024/03/20 00:20:41;;;;;;;12.80;11.53;;;7.20;1.00;;;;;;5124045;27;20996;-73
2024/03/20 00:23:07;;;;;;;12.80;11.50;;;7.10;1.00;;;;;;5125497;27;20567;-76
2024/03/20 00:25:34;;;;;;;18.73;12.50;;;7.10;1.00;;;;;;5125135;27;20845;-74
2024/03/20 00:28:01;;;;;;;15.47;12.17;;;7.00;1.00;;;;;;5125289;27;20472;-74
2024/03/20 00:30:27;;;;;;;12.50;11.30;;;7.00;1.00;;;;;;5124264;27;21126;-75
2024/03/20 00:32:54;;;;;;;13.03;11.47;;;7.00;1.00;;;;;;5107970;27;20518;-74
2024/03/20 00:35:23;;;;;;;12.50;11.30;;;6.90;1.00;;;;;;5106243;27;21364;-74
2024/03/20 00:37:50;;;;;;;14.03;12.60;;;6.90;1.00;;;;;;5113012;27;20244;-75
2024/03/20 00:40:17;;;;;;;12.20;11.07;;;6.90;1.00;;;;;;5107247;27;20515;-75
2024/03/20 00:42:44;;;;;;;15.40;12.70;;;6.90;1.00;;;;;;5107908;27;20904;-74
2024/03/20 00:45:11;;;;;;;13.77;12.40;;;6.80;1.00;;;;;;5126794;27;20895;-73
2024/03/20 00:47:37;;;;;;;13.37;12.07;;;6.70;1.00;;;;;;5126659;27;20536;-73
2024/03/20 00:50:06;;;;;;;13.43;11.30;;;6.60;1.00;;;;;;5128280;27;20445;-75
2024/03/20 00:52:34;;;;;;;12.40;11.20;;;6.60;1.00;;;;;;5125596;27;20483;-74
2024/03/20 00:55:01;;;;;;;15.60;11.68;;;6.40;1.00;;;;;;5124259;27;20456;-75
2024/03/20 00:57:28;;;;;;;16.17;13.80;;;6.40;1.00;;;;;;5127830;27;20293;-74
2024/03/20 00:59:55;;;;;;;16.33;12.93;;;6.30;1.00;;;;;;5125749;27;20544;-76
2024/03/20 01:02:22;;;;;;;14.73;12.32;;;6.40;1.00;;;;;;5105152;27;20237;-75
2024/03/20 01:04:48;;;;;;;16.08;13.07;;;6.40;1.00;;;;;;5125004;27;20305;-75
2024/03/20 01:07:15;;;;;;;14.98;13.40;;;6.30;1.00;;;;;;5128114;27;20352;-75
2024/03/20 01:09:44;;;;;;;13.70;12.20;;;6.30;1.00;;;;;;5125873;27;20272;-76
2024/03/20 01:12:11;;;;;;;14.13;12.77;;;6.40;1.00;;;;;;5125008;27;20480;-74
2024/03/20 01:14:38;;;;;;;14.80;12.77;;;6.40;1.00;;;;;;5125665;27;20330;-75
2024/03/20 01:17:05;;;;;;;15.60;12.53;;;6.40;1.00;;;;;;5126453;27;21034;-75
2024/03/20 01:19:32;;;;;;;14.53;12.93;;;6.30;1.00;;;;;;5126419;27;20455;-74
2024/03/20 01:21:59;;;;;;;13.43;11.88;;;6.20;1.00;;;;;;5110075;27;20556;-74
2024/03/20 01:24:26;;;;;;;15.13;12.50;;;6.10;1.00;;;;;;5127949;27;20677;-75
2024/03/20 01:26:54;;;;;;;15.18;12.35;;;6.00;1.00;;;;;;5129499;27;20966;-75
2024/03/20 01:29:21;;;;;;;13.35;12.05;;;5.90;1.00;;;;;;5128868;27;20244;-75
2024/03/20 01:31:48;;;;;;;16.00;13.27;;;5.90;1.00;;;;;;5129028;27;20946;-75
2024/03/20 01:34:15;;;;;;;14.70;13.30;;;5.80;1.00;;;;;;5125787;27;20506;-74
2024/03/20 01:36:41;;;;;;;17.80;13.38;;;5.70;1.00;;;;;;5110999;27;20468;-75
2024/03/20 01:39:08;;;;;;;17.52;13.48;;;5.60;1.00;;;;;;5121753;27;20262;-75
2024/03/20 01:41:35;;;;;;;13.40;12.00;;;5.60;1.00;;;;;;5128123;27;20323;-75
2024/03/20 01:44:04;;;;;;;14.70;13.18;;;5.50;1.00;;;;;;5129601;27;20309;-74
2024/03/20 01:46:32;;;;;;;14.13;12.32;;;5.40;1.00;;;;;;5112196;27;20241;-76
2024/03/20 01:49:00;;;;;;;15.73;12.57;;;5.40;1.00;;;;;;5124310;27;20234;-75
2024/03/20 01:51:28;;;;;;;15.43;13.02;;;5.30;1.00;;;;;;5122177;27;20351;-75
2024/03/20 01:53:57;;;;;;;16.08;14.35;;;5.30;1.00;;;;;;5122013;27;20241;-75
2024/03/20 01:56:24;;;;;;;16.25;13.82;;;5.30;1.00;;;;;;5126486;27;20814;-76
2024/03/20 01:58:51;;;;;;;14.73;13.30;;;5.30;1.00;;;;;;5123690;27;20237;-75
2024/03/20 02:01:19;;;;;;;14.70;12.40;;;5.20;1.00;;;;;;5118915;27;20318;-75
2024/03/20 02:03:48;;;;;;;14.70;13.20;;;5.20;1.00;;;;;;5115188;27;20259;-74
2024/03/20 02:06:22;;;;;;;17.67;12.95;;;5.20;1.00;;;;;;5123906;27;20314;-75
2024/03/20 02:08:50;;;;;;;16.63;13.60;;;5.20;1.00;;;;;;5126378;27;20430;-75
2024/03/20 02:11:18;;;;;;;21.17;13.88;;;5.10;1.00;;;;;;5122096;27;20316;-75
2024/03/20 02:13:45;;;;;;;16.40;14.70;;;5.10;1.00;;;;;;5106824;27;20238;-75
2024/03/20 02:16:13;;;;;;;15.32;13.40;;;5.10;1.00;;;;;;5122115;27;20716;-75
2024/03/20 02:18:41;;;;;;;15.25;13.75;;;5.10;1.00;;;;;;5127812;27;20421;-75
2024/03/20 02:21:10;;;;;;;21.30;14.18;;;5.10;1.00;;;;;;5128608;27;20338;-74
2024/03/20 02:23:37;;;;;;;14.50;12.85;;;5.10;1.00;;;;;;5125311;27;21074;-75
2024/03/20 02:26:05;;;;;;;18.50;13.90;;;5.10;1.00;;;;;;5114511;27;20906;-75
2024/03/20 02:28:33;;;;;;;17.17;12.70;;;5.10;1.00;;;;;;5123500;27;21038;-75
2024/03/20 02:31:01;;;;;;;14.73;13.15;;;5.10;1.00;;;;;;5127466;27;20236;-75
2024/03/20 02:33:27;;;;;;;16.40;14.70;;;5.10;1.00;;;;;;5123283;27;20239;-75
2024/03/20 02:35:55;;;;;;;15.48;13.98;;;5.10;1.00;;;;;;5126386;27;20236;-75
2024/03/20 02:38:23;;;;;;;16.35;14.75;;;5.20;1.00;;;;;;5125591;27;20824;-74
2024/03/20 02:40:52;;;;;;;15.85;14.35;;;5.30;1.00;;;;;;5108918;27;20290;-74
2024/03/20 02:43:19;;;;;;;14.82;13.32;;;5.40;1.00;;;;;;5126138;27;20231;-75
2024/03/20 02:45:46;;;;;;;17.58;14.75;;;5.40;1.00;;;;;;5127876;27;20289;-75
2024/03/20 02:48:13;;;;;;;16.48;14.70;;;5.40;1.00;;;;;;5125229;27;20974;-75
2024/03/20 02:50:41;;;;;;;17.02;15.23;;;5.50;1.00;;;;;;5117872;27;20376;-74
2024/03/20 02:53:08;;;;;;;16.13;14.20;;;5.50;1.00;;;;;;5126406;27;20320;-74
2024/03/20 02:55:39;;;;;;;18.60;15.75;;;5.50;1.00;;;;;;5118697;27;20329;-76
2024/03/20 02:58:06;;;;;;;18.15;14.32;;;5.50;1.00;;;;;;5126525;27;20344;-75
2024/03/20 03:00:34;;;;;;;16.05;14.07;;;5.40;1.00;;;;;;5124780;27;20241;-74
2024/03/20 03:03:00;;;;;;;16.40;13.55;;;5.50;1.00;;;;;;5117305;27;20808;-75
2024/03/20 03:05:27;;;;;;;15.13;13.43;;;5.50;1.00;;;;;;5120482;27;20294;-75
2024/03/20 03:07:57;;;;;;;18.77;14.70;;;5.60;1.00;;;;;;5113266;27;21117;-74
2024/03/20 03:10:25;;;;;;;15.32;13.75;;;5.70;1.00;;;;;;5124402;27;20239;-75
2024/03/20 03:12:53;;;;;;;17.38;15.30;;;5.70;1.00;;;;;;5117931;27;20245;-77
2024/03/20 03:15:20;;;;;;;16.70;14.23;;;5.70;1.00;;;;;;5115543;27;20236;-76
2024/03/20 03:17:48;;;;;;;15.98;13.98;;;5.70;1.00;;;;;;5109916;27;20233;-75
2024/03/20 03:20:15;;;;;;;17.63;14.35;;;5.70;1.00;;;;;;5116299;27;20264;-76
2024/03/20 03:22:42;;;;;;;17.30;14.57;;;5.70;1.00;;;;;;5120289;27;20323;-75
2024/03/20 03:25:10;;;;;;;16.00;13.93;;;5.70;1.00;;;;;;5108421;27;20239;-71
2024/03/20 03:27:37;;;;;;;16.63;14.82;;;5.80;1.00;;;;;;5124683;27;20238;-73
2024/03/20 03:30:08;;;;;;;15.38;13.77;;;5.80;1.00;;;;;;5118236;27;20791;-72
2024/03/20 03:32:35;;;;;;;17.08;15.20;;;5.60;1.00;;;;;;5102787;27;20238;-73
2024/03/20 03:35:01;;;;;;;18.75;15.18;;;5.60;1.00;;;;;;5121560;27;20244;-73
2024/03/20 03:37:28;;;;;;;17.17;15.38;;;5.60;1.00;;;;;;5126956;27;20698;-73
2024/03/20 03:39:59;;;;;;;18.65;15.70;;;5.50;1.00;;;;;;5119078;27;20240;-73
2024/03/20 03:42:26;;;;;;;18.95;14.88;;;5.50;1.00;;;;;;5108760;27;20243;-73
2024/03/20 03:44:53;;;;;;;15.27;13.38;;;5.40;1.00;;;;;;5121653;27;21062;-72
2024/03/20 03:47:22;;;;;;;16.63;14.98;;;5.40;1.00;;;;;;5121274;27;20240;-72
2024/03/20 03:49:49;;;;;;;16.90;15.05;;;5.30;1.00;;;;;;5122543;27;20254;-71
2024/03/20 03:52:16;;;;;;;18.13;14.73;;;5.30;1.00;;;;;;5123507;27;20328;-73
2024/03/20 03:54:43;;;;;;;19.80;15.48;;;5.40;1.00;;;;;;5123308;27;20279;-72
2024/03/20 03:57:10;;;;;;;17.02;14.73;;;5.40;1.00;;;;;;5104876;27;20268;-72
2024/03/20 03:59:37;;;;;;;23.05;17.23;;;5.40;1.00;;;;;;5120497;27;20237;-72
2024/03/20 04:02:03;;;;;;;17.08;15.27;;;5.40;1.00;;;;;;5126077;27;20260;-72
2024/03/20 04:04:32;;;;;;;17.30;14.75;;;5.50;1.00;;;;;;5113378;27;21125;-73
2024/03/20 04:06:59;;;;;;;17.73;15.10;;;5.50;1.00;;;;;;5101414;27;20240;-72
2024/03/20 04:09:26;;;;;;;19.48;16.25;;;5.40;1.00;;;;;;5110683;27;21068;-73
2024/03/20 04:11:54;;;;;;;18.20;14.82;;;5.50;1.00;;;;;;5122289;27;20327;-73
2024/03/20 04:14:21;;;;;;;17.75;14.93;;;5.60;1.00;;;;;;5124258;27;20264;-73
2024/03/20 04:16:48;;;;;;;16.77;14.52;;;5.70;1.00;;;;;;5125072;27;20324;-74
2024/03/20 04:19:15;;;;;;;19.55;14.40;;;5.70;1.00;;;;;;5121548;27;20342;-73
2024/03/20 04:21:43;;;;;;;21.23;16.52;;;5.70;1.00;;;;;;5128106;27;20235;-72
2024/03/20 04:24:10;;;;;;;16.80;14.57;;;5.60;1.00;;;;;;5127782;27;20316;-72
2024/03/20 04:26:37;;;;;;;20.92;15.48;;;5.50;1.00;;;;;;5112320;27;20231;-72
2024/03/20 04:29:05;;;;;;;19.15;15.70;;;5.50;1.00;;;;;;5105932;27;20723;-72
2024/03/20 04:31:32;;;;;;;19.90;14.75;;;5.50;1.00;;;;;;5103983;27;20292;-71
2024/03/20 04:34:00;;;;;;;20.17;15.40;;;5.50;1.00;;;;;;5114848;27;20236;-75
2024/03/20 04:36:27;;;;;;;20.90;15.38;;;5.50;1.00;;;;;;5125612;27;20234;-74
2024/03/20 04:38:55;;;;;;;17.98;14.93;;;5.50;1.00;;;;;;5129032;27;20300;-73
2024/03/20 04:41:22;;;;;;;18.00;15.20;;;5.50;1.00;;;;;;5131278;27;20322;-72
2024/03/20 04:43:49;;;;;;;18.38;16.08;;;5.60;1.00;;;;;;5120886;27;20244;-73
2024/03/20 04:46:16;;;;;;;22.77;16.85;;;5.60;1.00;;;;;;5122388;27;20266;-73
2024/03/20 04:48:43;;;;;;;25.65;17.30;;;5.50;1.00;;;;;;5126823;27;20292;-71
2024/03/20 04:51:10;;;;;;;18.83;16.00;;;5.60;1.00;;;;;;5123287;27;20369;-72
2024/03/20 04:53:38;;;;;;;19.17;15.05;;;5.60;1.00;;;;;;5127448;27;20234;-72
2024/03/20 04:56:06;;;;;;;18.40;16.02;;;5.60;1.00;;;;;;5118024;27;20325;-72
2024/03/20 04:58:33;;;;;;;21.17;15.50;;;5.70;1.00;;;;;;5125240;27;20237;-72
2024/03/20 05:01:00;;;;;;;17.60;15.25;;;5.70;1.00;;;;;;5127503;27;20266;-72
2024/03/20 05:03:27;;;;;;;19.95;16.48;;;5.60;1.00;;;;;;5125645;27;20300;-74
2024/03/20 05:05:54;;;;;;;22.63;15.85;;;5.60;1.00;;;;;;5116955;27;20739;-71
2024/03/20 05:08:20;;;;;;;21.00;16.02;;;5.60;1.00;;;;;;5115386;27;20236;-73
2024/03/20 05:10:47;;;;;;;17.48;14.95;;;5.60;1.00;;;;;;5128475;27;20240;-72
2024/03/20 05:13:16;;;;;;;17.23;15.43;;;5.60;1.00;;;;;;5126913;27;20271;-75
2024/03/20 05:15:43;;;;;;;19.58;15.93;;;5.60;1.00;;;;;;5121474;27;20289;-72
2024/03/20 05:18:10;;;;;;;19.25;15.32;;;5.60;1.00;;;;;;5105893;27;20348;-73
2024/03/20 05:20:36;;;;;;;17.38;15.50;;;5.60;1.00;;;;;;5124607;27;20294;-73
2024/03/20 05:23:02;;;;;;;21.73;16.75;;;5.60;1.00;;;;;;5126512;27;20329;-72
2024/03/20 05:25:35;;;;;;;21.25;17.00;;;5.50;1.00;;;;;;5127983;27;20325;-73
2024/03/20 05:28:01;;;;;;;17.65;15.60;;;5.60;1.00;;;;;;5111963;27;20290;-72
2024/03/20 05:30:30;;;;;;;17.55;15.85;;;5.60;1.00;;;;;;5128322;27;20234;-72
2024/03/20 05:32:55;;;;;;;17.85;15.68;;;5.60;1.00;;;;;;5126487;27;20244;-74
2024/03/20 05:35:22;;;;;;;18.90;16.17;;;5.60;1.00;;;;;;5125765;27;20247;-73
2024/03/20 05:37:49;;;;;;;19.95;16.75;;;5.60;1.00;;;;;;5108258;27;20485;-72
2024/03/20 05:40:17;;;;;;;19.17;15.35;;;5.60;1.00;;;;;;5109246;27;20281;-71
2024/03/20 05:42:43;;;;;;;17.73;14.75;;;5.70;1.00;;;;;;5124298;27;20235;-72
2024/03/20 05:45:10;;;;;;;18.13;14.20;;;5.70;1.00;;;;;;5126121;27;20279;-75
2024/03/20 05:47:38;;;;;;;24.45;16.75;;;5.70;1.00;;;;;;5119063;27;20625;-75
2024/03/20 05:50:06;;;;;;;22.30;15.88;;;5.70;1.00;;;;;;5114754;27;20241;-76
2024/03/20 05:52:33;;;;;;;24.00;17.55;;;5.70;1.00;;;;;;5123798;27;20318;-76
2024/03/20 05:54:59;;;;;;;22.52;16.88;;;5.60;1.00;;;;;;5127714;27;20329;-76
2024/03/20 05:57:26;;;;;;;18.00;15.27;;;5.70;1.00;;;;;;5130210;27;20235;-75
2024/03/20 05:59:52;;;;;;;19.30;15.23;;;5.70;1.00;;;;;;5126472;27;20418;-75
2024/03/20 06:02:19;;;;;;;22.88;17.15;;;5.80;1.00;;;;;;5129255;27;20263;-76
2024/03/20 06:04:46;;;;;;;21.00;16.92;;;5.80;1.00;;;;;;5120866;27;20320;-76
2024/03/20 06:07:13;;;;;;;37.17;27.92;;;5.90;1.00;;;;;;5114690;27;20249;-76
2024/03/20 06:09:39;;;;;;;18.88;15.70;;;6.00;1.00;;;;;;5126387;27;20822;-75
2024/03/20 06:12:09;;;;;;;24.30;18.88;;;5.90;1.00;;;;;;5127576;27;20240;-75
2024/03/20 06:14:35;;;;;;;16.35;14.65;;;6.00;1.00;;;;;;5117563;27;20234;-75
2024/03/20 06:17:02;;;;;;;23.60;17.80;;;6.10;1.00;;;;;;5125919;27;20231;-75
2024/03/20 06:19:28;;;;;;;21.63;16.20;;;6.20;1.00;;;;;;5127217;27;21319;-74
2024/03/20 06:21:56;;;;;;;19.10;16.70;;;6.20;1.00;;;;;;5126351;27;20295;-76
2024/03/20 06:24:22;;;;;;;20.58;16.50;;;6.20;1.00;;;;;;5125299;27;20453;-75
2024/03/20 06:26:49;;;;;;;18.45;14.98;;;6.30;1.00;;;;;;5125429;27;20241;-76
2024/03/20 06:29:15;;;;;;;24.52;20.13;;;6.30;1.00;;;;;;5124050;27;20238;-76
2024/03/20 06:31:42;;;;;;;21.20;16.27;;;6.30;1.00;;;;;;5133074;27;20271;-77
2024/03/20 06:34:10;;;;;;;24.77;15.68;;;6.40;1.00;;;;;;5136454;27;20538;-77
2024/03/20 06:36:38;;;;;;;22.33;17.95;;;6.50;1.00;;;;;;5133001;27;20323;-76
2024/03/20 06:39:09;;;;;;;21.98;16.42;;;6.60;1.00;;;;;;5131132;27;20241;-76
2024/03/20 06:41:36;;;;;;;23.17;17.02;;;6.80;1.00;;;;;;5131170;27;20241;-76
2024/03/20 06:44:02;;;;;;;24.50;15.25;;;6.80;1.00;;;;;;5127430;27;21028;-75
2024/03/20 06:46:29;;;;;;;22.80;16.80;;;6.90;1.00;;;;;;5127181;27;20231;-76
2024/03/20 06:48:58;;;;;;;27.25;17.45;;;7.00;1.00;;;;;;5126682;27;20244;-76
2024/03/20 06:51:25;;;;;;;22.15;16.20;;;7.10;1.00;;;;;;5129439;27;20226;-76
2024/03/20 06:53:53;;;;;;;24.95;18.02;;;7.10;1.00;;;;;;5125193;27;20269;-77
2024/03/20 06:56:22;;;;;;;22.50;17.00;;;7.00;1.00;;;;;;5125503;27;21019;-77
2024/03/20 06:58:48;;;;;;;22.27;16.67;;;7.10;1.00;;;;;;5127305;27;20484;-73
2024/03/20 07:01:15;;;;;;;24.63;18.23;;;7.00;1.00;;;;;;5128028;27;20254;-74
2024/03/20 07:03:40;;;;;;;27.80;16.90;;;7.00;1.00;;;;;;5127245;27;20579;-75
2024/03/20 07:06:08;;;;;;;20.00;16.53;;;7.00;1.00;;;;;;5128220;27;20475;-72
2024/03/20 07:08:36;;;;;;;19.60;16.20;;;7.10;1.00;;;;;;5127145;27;20500;-74
2024/03/20 07:11:04;;;;;;;20.42;18.23;;;6.90;1.00;;;;;;5130600;27;20357;-73
2024/03/20 07:13:31;;;;;;;19.73;17.47;;;6.90;1.00;;;;;;5129242;27;20239;-73
2024/03/20 07:15:58;;;;;;;26.50;18.10;;;7.00;1.00;;;;;;5126599;27;20892;-72
2024/03/20 07:18:24;;;;;;;22.85;17.15;;;7.10;1.00;;;;;;5127980;27;20309;-73
2024/03/20 07:20:51;;;;;;;25.00;17.70;;;7.00;1.00;;;;;;5127671;27;20686;-74
2024/03/20 07:23:17;;;;;;;23.80;17.17;;;7.10;1.00;;;;;;5125950;27;21069;-74
2024/03/20 07:25:44;;;;;;;29.23;25.63;;;7.30;1.00;;;;;;5126078;27;20268;-72
2024/03/20 07:28:12;;;;;;;24.10;18.40;;;7.50;1.00;;;;;;5129361;27;20442;-74
2024/03/20 07:30:41;;;;;;;24.20;19.57;;;7.80;1.00;;;;;;5128365;27;20568;-72
2024/03/20 07:33:09;;;;;;;20.73;18.23;;;8.00;1.00;;;;;;5124229;27;20489;-74
2024/03/20 07:35:44;;;;;;;21.93;17.80;;;8.10;1.00;;;;;;5127112;27;20488;-74
2024/03/20 07:38:10;;;;;;;23.80;18.87;;;8.20;1.00;;;;;;5122391;27;20511;-73
2024/03/20 07:40:38;;;;;;;22.10;18.60;;;8.50;1.00;;;;;;5124521;27;20464;-74
2024/03/20 07:43:04;;;;;;;21.33;17.57;;;8.60;1.00;;;;;;5127241;27;20460;-75
2024/03/20 07:45:32;;;;;;;21.17;18.17;;;8.40;1.00;;;;;;5127096;27;21253;-74
2024/03/20 07:48:00;;;;;;;20.80;17.47;;;8.30;1.00;;;;;;5128065;27;20480;-78
2024/03/20 07:50:27;;;;;;;20.00;17.63;;;8.20;1.00;;;;;;5127124;27;20990;-73
2024/03/20 07:52:54;;;;;;;24.60;19.50;;;8.30;1.00;;;;;;5126135;27;20466;-71
2024/03/20 07:55:21;;;;;;;22.63;20.23;;;8.50;1.00;;;;;;5124485;27;20468;-74
2024/03/20 07:57:47;;;;;;;22.97;18.93;;;8.80;1.00;;;;;;5124353;27;20520;-74
2024/03/20 08:00:17;;;;;;;28.50;20.33;;;9.00;1.00;;;;;;5123184;27;21079;-72
2024/03/20 08:02:43;;;;;;;29.13;20.30;;;9.30;1.00;;;;;;5126555;27;20475;-77
2024/03/20 08:05:12;;;;;;;25.10;18.73;;;9.50;1.00;;;;;;5122182;27;20923;-76
2024/03/20 08:07:40;;;;;;;22.00;19.50;;;9.80;1.00;;;;;;5127468;27;20514;-76
2024/03/20 08:10:12;;;;;;;21.27;18.30;;;10.00;1.00;;;;;;5124145;27;20928;-74
2024/03/20 08:12:38;;;;;;;22.03;19.70;;;10.20;1.00;;;;;;5125440;27;20468;-75
2024/03/20 08:15:07;;;;;;;20.07;17.37;;;10.30;1.00;;;;;;5124172;27;20472;-73
2024/03/20 08:17:33;;;;;;;26.20;19.10;;;10.40;1.00;;;;;;5125765;27;20429;-75
2024/03/20 08:20:02;;;;;;;19.80;17.73;;;10.40;1.00;;;;;;5130285;27;20446;-74
2024/03/20 08:22:32;;;;;;;24.37;18.77;;;10.40;1.00;;;;;;5139218;27;20522;-76
2024/03/20 08:24:59;;;;;;;21.03;18.07;;;10.50;1.00;;;;;;5127087;27;21007;-76
2024/03/20 08:27:26;;;;;;;22.27;18.77;;;10.50;1.00;;;;;;5127564;27;20498;-75
2024/03/20 08:29:55;;;;;;;20.30;18.13;;;10.60;1.00;;;;;;5126107;27;20453;-74
2024/03/20 08:32:21;;;;;;;22.67;18.77;;;10.80;1.00;;;;;;5126559;27;20449;-75
2024/03/20 08:34:48;;;;;;;28.57;18.83;;;11.00;1.00;;;;;;5125471;27;20534;-73
2024/03/20 08:37:14;;;;;;;26.97;19.93;;;11.30;1.00;;;;;;5123552;27;20498;-73
2024/03/20 08:39:43;;;;;;;20.73;18.30;;;11.50;1.00;;;;;;5125651;27;20555;-74
2024/03/20 08:42:09;;;;;;;19.93;17.90;;;11.60;1.00;;;;;;5129155;27;20986;-76
2024/03/20 08:44:36;;;;;;;18.70;16.90;;;11.80;1.00;;;;;;5122948;27;20515;-75
2024/03/20 08:47:02;;;;;;;19.90;17.60;;;11.90;1.00;;;;;;5123117;27;20574;-74
2024/03/20 08:49:37;;;;;;;20.53;18.43;;;12.10;1.00;;;;;;5120285;27;20473;-76
2024/03/20 08:52:03;;;;;;;25.93;19.47;;;12.20;1.00;;;;;;5120690;27;20446;-74
2024/03/20 08:54:30;;;;;;;19.60;17.53;;;12.50;1.00;;;;;;5119624;27;20459;-72
2024/03/20 08:56:58;;;;;;;19.47;17.37;;;12.80;1.00;;;;;;5122071;27;20459;-73
2024/03/20 08:59:25;;;;;;;21.60;18.43;;;13.10;1.00;;;;;;5120240;27;20427;-75
2024/03/20 09:01:51;;;;;;;19.80;15.97;;;13.30;1.00;;;;;;5123744;27;20463;-77
2024/03/20 09:04:17;;;;;;;17.33;15.50;;;13.60;1.00;;;;;;5124983;27;20912;-74
2024/03/20 09:06:44;;;;;;;20.80;17.70;;;13.80;1.00;;;;;;5124903;27;20535;-74
2024/03/20 09:09:11;;;;;;;18.90;15.03;;;13.90;1.00;;;;;;5130253;27;20486;-75
2024/03/20 09:11:36;;;;;;;17.77;15.97;;;14.10;1.00;;;;;;5126246;27;20457;-76
2024/03/20 09:14:05;;;;;;;19.33;16.83;;;14.20;1.00;;;;;;5127100;27;20876;-72
2024/03/20 09:16:31;;;;;;;18.77;16.63;;;14.20;1.00;;;;;;5131895;27;20517;-70
2024/03/20 09:18:58;;;;;;;17.97;16.17;;;14.40;1.00;;;;;;5125561;27;21054;-70
2024/03/20 09:21:24;;;;;;;24.20;16.30;;;14.70;1.00;;;;;;5124103;27;20464;-73
2024/03/20 09:23:51;;;;;;;22.87;20.47;;;15.20;1.00;;;;;;5127975;27;20480;-74
2024/03/20 09:26:17;;;;;;;18.50;16.50;;;15.70;1.00;;;;;;5116059;27;20799;-70
2024/03/20 09:28:44;;;;;;;16.83;15.10;;;16.10;1.00;;;;;;5130278;27;20460;-72
2024/03/20 09:31:12;;;;;;;15.90;14.30;;;16.70;1.00;;;;;;5123360;27;22119;-70
2024/03/20 09:33:39;;;;;;;16.20;14.50;;;17.70;1.00;;;;;;5114221;27;20561;-70
2024/03/20 09:36:05;;;;;;;15.93;14.27;;;18.60;1.00;;;;;;5111873;27;20479;-70
2024/03/20 09:38:32;;;;;;;15.53;14.00;;;18.80;1.00;;;;;;5113485;27;20490;-73
2024/03/20 09:40:58;;;;;;;17.90;14.60;;;19.20;1.00;;;;;;5114289;27;20469;-71
2024/03/20 09:43:25;;;;;;;14.77;13.38;;;20.10;1.00;;;;;;5124382;27;20440;-74
2024/03/20 09:45:53;;;;;;;14.90;13.43;;;20.50;1.00;;;;;;5123504;27;20362;-75
2024/03/20 09:48:22;;;;;;;15.97;13.93;;;20.80;1.00;;;;;;5129874;27;20846;-76
2024/03/20 09:50:49;;;;;;;14.40;13.07;;;21.70;1.00;;;;;;5127440;27;20463;-76
2024/03/20 09:53:18;;;;;;;12.70;11.40;;;22.60;1.00;;;;;;5125247;27;20457;-77
2024/03/20 09:55:45;;;;;;;12.90;11.70;;;23.20;1.00;;;;;;5127086;27;20465;-77
2024/03/20 09:58:14;;;;;;;12.23;11.03;;;23.90;1.00;;;;;;5124333;27;20549;-78
2024/03/20 10:00:40;;;;;;;12.80;11.60;;;23.30;1.00;;;;;;5131608;27;20406;-75
2024/03/20 10:03:09;;;;;;;12.23;10.93;;;23.00;1.00;;;;;;5128566;27;20991;-74
2024/03/20 10:05:40;;;;;;;14.90;12.33;;;23.40;1.00;;;;;;5122707;27;20479;-76
2024/03/20 10:08:12;;;;;;;12.57;10.80;;;23.70;1.00;;;;;;5126181;27;20485;-73
2024/03/20 10:10:42;;;;;;;13.17;11.90;;;23.60;1.00;;;;;;5125714;27;20607;-77
2024/03/20 10:13:15;;;;;;;12.03;10.83;;;23.10;1.00;;;;;;5120710;27;20484;-76
2024/03/20 10:15:42;;;;;;;12.30;11.20;;;23.60;1.00;;;;;;5130506;27;20464;-73
2024/03/20 10:18:16;;;;;;;13.97;11.90;;;23.90;1.00;;;;;;5133424;27;20474;-75
2024/03/20 10:20:43;;;;;;;12.67;11.40;;;24.20;1.00;;;;;;5124652;27;20450;-75
2024/03/20 10:23:14;;;;;;;15.63;11.90;;;24.90;1.00;;;;;;5125495;27;20483;-73
2024/03/20 10:25:40;;;;;;;12.30;11.20;;;24.70;1.00;;;;;;5126333;27;20459;-73
2024/03/20 10:28:14;;;;;;;13.97;11.23;;;25.30;1.00;;;;;;5121977;27;20533;-75
2024/03/20 10:30:41;;;;;;;15.07;13.47;;;26.30;1.00;;;;;;5124254;27;20864;-72
2024/03/20 10:33:17;;;;;;;11.63;10.63;;;26.80;1.00;;;;;;5121904;27;21136;-76
2024/03/20 10:35:48;;;;;;;12.27;11.17;;;26.50;1.00;;;;;;5125347;27;22167;-73
2024/03/20 10:38:16;;;;;;;11.90;10.73;;;26.10;1.00;;;;;;5123003;27;20473;-77
2024/03/20 10:40:42;;;;;;;10.70;9.80;;;26.00;1.00;;;;;;5123098;27;20479;-73
2024/03/20 10:43:11;;;;;;;10.87;9.77;;;26.50;1.00;;;;;;5123011;27;20508;-74
2024/03/20 10:45:37;;;;;;;10.93;9.93;;;26.90;1.00;;;;;;5121742;27;20842;-74
2024/03/20 10:48:05;;;;;;;11.10;10.03;;;25.80;1.00;;;;;;5120725;27;20480;-72
2024/03/20 10:50:31;;;;;;;11.73;10.53;;;25.60;1.00;;;;;;5122041;27;20573;-72
2024/03/20 10:53:00;;;;;;;12.03;10.33;;;25.90;1.00;;;;;;5120309;27;20542;-71
2024/03/20 10:55:28;;;;;;;11.53;10.33;;;25.50;1.00;;;;;;5119843;27;20239;-73
2024/03/20 10:57:58;;;;;;;11.20;10.10;;;26.00;1.00;;;;;;5120911;27;20453;-70
2024/03/20 11:00:24;;;;;;;12.17;10.93;;;26.50;1.00;;;;;;5119713;27;20627;-69
2024/03/20 11:02:51;;;;;;;12.83;11.50;;;26.60;1.00;;;;;;5118532;27;20465;-71
2024/03/20 11:05:36;;;;;;;10.27;9.27;;;27.60;1.00;;;;;;5117367;27;20533;-72
2024/03/20 11:08:07;;;;;;;10.60;9.60;;;28.70;1.00;;;;;;5125170;27;20461;-71
2024/03/20 11:10:33;;;;;;;13.00;10.23;;;29.00;1.00;;;;;;5125562;27;20464;-71
2024/03/20 11:13:01;;;;;;;10.47;9.57;;;29.10;1.00;;;;;;5124687;27;20471;-70
2024/03/20 11:15:28;;;;;;;11.50;10.40;;;29.00;1.00;;;;;;5125410;27;20527;-72
2024/03/20 11:17:55;;;;;;;11.90;10.70;;;28.50;1.00;;;;;;5126835;27;20464;-69
2024/03/20 11:20:42;;;;;;;10.03;9.13;;;28.10;1.00;;;;;;5125025;27;20474;-73
2024/03/20 11:23:22;;;;;;;10.60;9.60;;;27.80;1.00;;;;;;5125021;27;21016;-71
2024/03/20 11:25:48;;;;;;;12.33;10.70;;;27.50;1.00;;;;;;5125280;27;20465;-72
2024/03/20 11:28:15;;;;;;;11.43;10.23;;;27.20;1.00;;;;;;5122670;27;20870;-72
2024/03/20 11:30:41;;;;;;;12.53;11.23;;;27.00;1.00;;;;;;5122461;27;20468;-73
2024/03/20 11:33:10;;;;;;;14.70;11.80;;;26.70;1.00;;;;;;5125339;27;20838;-72
2024/03/20 11:35:37;;;;;;;12.23;11.03;;;26.70;1.00;;;;;;5127339;27;20525;-75
2024/03/20 11:38:05;;;;;;;14.53;11.50;;;26.70;1.00;;;;;;5122783;27;20499;-75
2024/03/20 11:40:33;;;;;;;11.40;10.23;;;26.70;1.00;;;;;;5125358;27;20649;-75
2024/03/20 11:43:00;;;;;;;16.07;12.33;;;26.90;1.00;;;;;;5127740;27;20533;-74
2024/03/20 11:45:26;;;;;;;12.20;9.80;;;26.50;1.00;;;;;;5117047;27;20461;-74
2024/03/20 11:47:54;;;;;;;12.70;11.40;;;26.40;1.00;;;;;;5118857;27;20528;-73
2024/03/20 11:50:20;;;;;;;14.20;11.30;;;25.10;1.00;;;;;;5121493;27;20468;-75
2024/03/20 11:52:52;;;;;;;11.67;10.47;;;25.40;1.00;;;;;;5126144;27;20473;-75
2024/03/20 11:55:18;;;;;;;12.90;11.50;;;25.50;1.00;;;;;;5119568;27;20434;-74
2024/03/20 11:57:46;;;;;;;14.77;13.03;;;25.20;1.00;;;;;;5123401;27;20835;-76
2024/03/20 12:00:14;;;;;;;13.90;11.97;;;25.80;1.00;;;;;;5120339;27;20537;-74
2024/03/20 12:02:43;;;;;;;13.80;12.37;;;26.60;1.00;;;;;;5122755;27;20513;-73
2024/03/20 12:05:11;;;;;;;13.10;11.90;;;27.50;1.00;;;;;;5119459;27;20459;-74
2024/03/20 12:07:39;;;;;;;13.60;12.20;;;28.10;1.00;;;;;;5119945;27;20690;-75
2024/03/20 12:10:27;;;;;;;16.13;12.73;;;28.60;1.00;;;;;;5124580;27;20514;-76
2024/03/20 12:13:31;;;;;;;14.93;12.93;;;29.10;1.00;;;;;;5121172;27;20614;-80
2024/03/20 12:15:57;;;;;;;13.73;12.33;;;30.00;1.00;;;;;;5119059;27;20509;-76
2024/03/20 12:18:24;;;;;;;13.07;11.87;;;30.10;1.00;;;;;;5121677;27;20455;-75
2024/03/20 12:20:50;;;;;;;12.93;11.73;;;30.50;1.00;;;;;;5128512;27;20436;-78
2024/03/20 12:23:17;;;;;;;20.70;14.20;;;31.20;1.00;;;;;;5120152;27;20528;-74
2024/03/20 12:25:44;;;;;;;13.33;11.47;;;31.00;1.00;;;;;;5125071;27;20963;-77
2024/03/20 12:28:11;;;;;;;14.20;12.80;;;31.10;1.00;;;;;;5123410;27;20729;-76
2024/03/20 12:30:39;;;;;;;15.40;13.07;;;31.20;1.00;;;;;;5119545;27;20447;-74
2024/03/20 12:33:08;;;;;;;13.10;11.90;;;31.00;1.00;;;;;;5123360;27;20452;-75
2024/03/20 12:35:34;;;;;;;13.37;12.03;;;30.40;1.00;;;;;;5122858;27;20511;-74
2024/03/20 12:38:01;;;;;;;13.13;11.93;;;30.20;1.00;;;;;;5122478;27;20510;-71
2024/03/20 12:40:27;;;;;;;12.40;11.20;;;30.10;1.00;;;;;;5127355;27;20234;-75
2024/03/20 12:42:55;;;;;;;13.07;11.87;;;29.80;1.00;;;;;;5128157;27;20503;-75
2024/03/20 12:45:22;;;;;;;12.10;11.00;;;30.10;1.00;;;;;;5128828;27;20583;-71